createdAt,value
2022-12-01T00:01:16.098Z,31.50
2022-12-01T00:03:43.174Z,29.37
2022-12-01T00:06:12.867Z,32.83
2022-12-01T00:08:39.525Z,28.60
2022-12-01T00:11:09.639Z,31.10
2022-12-01T00:13:36.661Z,32.72
2022-12-01T00:16:17.014Z,32.03
2022-12-01T00:18:44.022Z,28.38
2022-12-01T00:21:15.868Z,32.80
2022-12-01T00:23:43.716Z,32.22
2022-12-01T00:26:10.649Z,28.77
2022-12-01T00:28:37.245Z,28.40
2022-12-01T00:31:10.756Z,33.85
2022-12-01T00:33:37.462Z,27.15
2022-12-01T00:36:05.198Z,32.75
2022-12-01T00:38:32.403Z,28.90
2022-12-01T00:40:59.298Z,29.13
2022-12-01T00:43:25.992Z,29.92
2022-12-01T00:45:53.098Z,31.10
2022-12-01T00:48:21.020Z,30.48
2022-12-01T00:50:48.886Z,28.88
2022-12-01T00:53:15.631Z,30.17
2022-12-01T00:55:42.516Z,28.75
2022-12-01T00:58:09.440Z,31.77
2022-12-01T01:00:39.664Z,27.65
2022-12-01T01:03:07.080Z,34.63
2022-12-01T01:05:41.689Z,32.13
2022-12-01T01:08:09.776Z,34.92
2022-12-01T01:10:40.871Z,32.95
2022-12-01T01:13:07.578Z,31.15
2022-12-01T01:15:34.965Z,31.10
2022-12-01T01:18:01.916Z,31.63
2022-12-01T01:20:29.160Z,32.20
2022-12-01T01:22:56.081Z,32.53
2022-12-01T01:25:23.172Z,29.70
2022-12-01T01:27:50.708Z,33.42
2022-12-01T01:30:18.273Z,39.00
2022-12-01T01:32:44.942Z,31.23
2022-12-01T01:35:11.881Z,36.53
2022-12-01T01:37:38.488Z,31.23
2022-12-01T01:40:06.209Z,34.15
2022-12-01T01:42:32.842Z,33.47
2022-12-01T01:44:59.755Z,35.92
2022-12-01T01:47:34.868Z,30.48
2022-12-01T01:50:09.203Z,29.80
2022-12-01T01:52:43.171Z,35.40
2022-12-01T01:55:10.597Z,33.40
2022-12-01T01:57:38.251Z,33.88
2022-12-01T02:00:09.543Z,27.30
2022-12-01T02:02:43.521Z,29.42
2022-12-01T02:05:23.556Z,26.88
2022-12-01T02:07:56.302Z,29.40
2022-12-01T02:10:47.584Z,29.60
2022-12-01T02:13:23.327Z,24.77
2022-12-01T02:15:56.255Z,27.63
2022-12-01T02:18:37.977Z,25.63
2022-12-01T02:21:34.007Z,33.00
2022-12-01T02:24:54.602Z,33.25
2022-12-01T02:27:35.334Z,30.10
2022-12-01T02:30:09.270Z,30.02
2022-12-01T02:32:36.132Z,27.63
2022-12-01T02:35:15.485Z,31.50
2022-12-01T02:38:01.279Z,30.65
2022-12-01T02:40:43.806Z,29.58
2022-12-01T02:43:33.756Z,27.88
2022-12-01T02:46:09.663Z,28.63
2022-12-01T02:48:40.011Z,34.10
2022-12-01T02:51:14.837Z,29.15
2022-12-01T02:53:42.239Z,30.73
2022-12-01T02:56:13.032Z,27.50
2022-12-01T02:58:40.335Z,24.67
2022-12-01T03:01:19.963Z,26.20
2022-12-01T03:04:02.676Z,28.52
2022-12-01T03:06:41.261Z,25.73
2022-12-01T03:09:18.600Z,24.50
2022-12-01T03:11:57.049Z,24.92
2022-12-01T03:14:54.748Z,27.57
2022-12-01T03:17:30.553Z,24.80
2022-12-01T03:20:24.772Z,22.58
2022-12-01T03:22:56.836Z,25.33
2022-12-01T03:25:26.294Z,23.23
2022-12-01T03:28:20.093Z,28.40
2022-12-01T03:30:46.409Z,25.70
2022-12-01T03:33:20.860Z,29.65
2022-12-01T03:36:03.069Z,28.52
2022-12-01T03:38:31.881Z,25.75
2022-12-01T03:41:12.380Z,31.30
2022-12-01T03:43:43.016Z,37.92
2022-12-01T03:46:18.837Z,34.53
2022-12-01T03:48:46.397Z,28.65
2022-12-01T03:51:21.085Z,31.35
2022-12-01T03:53:56.307Z,33.87
2022-12-01T03:56:27.539Z,29.42
2022-12-01T03:58:58.013Z,27.40
2022-12-01T04:01:26.728Z,28.75
2022-12-01T04:03:53.488Z,29.45
2022-12-01T04:06:20.447Z,28.70
2022-12-01T04:08:47.076Z,31.00
2022-12-01T04:11:32.926Z,30.70
2022-12-01T04:13:59.827Z,30.48
2022-12-01T04:16:26.844Z,32.65
2022-12-01T04:18:53.563Z,26.77
2022-12-01T04:21:20.487Z,30.50
2022-12-01T04:24:02.210Z,29.75
2022-12-01T04:26:34.729Z,26.98
2022-12-01T04:29:03.126Z,33.60
2022-12-01T04:31:30.492Z,31.23
2022-12-01T04:33:58.920Z,32.00
2022-12-01T04:36:27.251Z,29.92
2022-12-01T04:38:53.968Z,35.40
2022-12-01T04:41:20.939Z,26.88
2022-12-01T04:43:47.646Z,29.20
2022-12-01T04:46:15.185Z,27.98
2022-12-01T04:48:41.908Z,30.17
2022-12-01T04:51:09.202Z,25.23
2022-12-01T04:53:36.526Z,24.45
2022-12-01T04:56:03.704Z,27.17
2022-12-01T04:58:32.384Z,28.52
2022-12-01T05:01:03.863Z,25.63
2022-12-01T05:03:30.730Z,27.63
2022-12-01T05:06:06.067Z,28.65
2022-12-01T05:08:34.199Z,24.87
2022-12-01T05:11:01.549Z,32.88
2022-12-01T05:13:28.598Z,29.85
2022-12-01T05:16:05.048Z,27.42
2022-12-01T05:18:31.844Z,26.33
2022-12-01T05:20:59.000Z,24.87
2022-12-01T05:23:31.158Z,24.45
2022-12-01T05:25:58.658Z,25.25
2022-12-01T05:28:26.834Z,30.10
2022-12-01T05:30:54.569Z,25.80
2022-12-01T05:33:22.399Z,25.90
2022-12-01T05:35:50.405Z,24.13
2022-12-01T05:38:17.780Z,26.92
2022-12-01T05:40:53.539Z,25.63
2022-12-01T05:43:28.381Z,22.40
2022-12-01T05:45:57.791Z,27.30
2022-12-01T05:48:25.305Z,23.83
2022-12-01T05:50:52.194Z,27.17
2022-12-01T05:53:19.038Z,28.90
2022-12-01T05:55:46.178Z,23.83
2022-12-01T05:58:13.079Z,25.63
2022-12-01T06:00:45.808Z,26.88
2022-12-01T06:03:13.808Z,22.70
2022-12-01T06:05:40.828Z,20.60
2022-12-01T06:08:07.958Z,23.02
2022-12-01T06:10:35.169Z,24.20
2022-12-01T06:13:02.501Z,23.52
2022-12-01T06:15:29.567Z,23.40
2022-12-01T06:17:59.141Z,27.60
2022-12-01T06:20:26.496Z,24.92
2022-12-01T06:22:53.326Z,24.77
2022-12-01T06:25:20.570Z,25.65
2022-12-01T06:27:47.360Z,27.33
2022-12-01T06:30:14.861Z,26.35
2022-12-01T06:32:41.555Z,24.45
2022-12-01T06:35:08.773Z,28.90
2022-12-01T06:37:35.721Z,28.52
2022-12-01T06:40:02.785Z,30.40
2022-12-01T06:42:31.598Z,26.65
2022-12-01T06:44:58.553Z,28.05
2022-12-01T06:47:25.236Z,28.70
2022-12-01T06:49:52.647Z,27.83
2022-12-01T06:52:19.686Z,31.67
2022-12-01T06:54:46.619Z,28.10
2022-12-01T06:57:13.497Z,27.92
2022-12-01T06:59:40.621Z,26.67
2022-12-01T07:02:10.845Z,28.15
2022-12-01T07:04:37.966Z,33.92
2022-12-01T07:07:05.976Z,25.88
2022-12-01T07:09:33.655Z,30.10
2022-12-01T07:12:00.415Z,27.13
2022-12-01T07:14:27.415Z,30.88
2022-12-01T07:16:54.609Z,25.35
2022-12-01T07:19:21.677Z,32.65
2022-12-01T07:21:48.709Z,30.30
2022-12-01T07:24:15.828Z,30.47
2022-12-01T07:26:43.258Z,30.35
2022-12-01T07:29:11.316Z,36.35
2022-12-01T07:31:38.775Z,30.67
2022-12-01T07:34:06.497Z,33.35
2022-12-01T07:36:33.427Z,31.97
2022-12-01T07:39:04.004Z,27.38
2022-12-01T07:41:30.676Z,34.53
2022-12-01T07:43:57.745Z,29.90
2022-12-01T07:46:26.467Z,31.70
2022-12-01T07:48:55.375Z,30.93
2022-12-01T07:51:24.162Z,30.90
2022-12-01T07:53:52.558Z,30.88
2022-12-01T07:56:20.643Z,32.25
2022-12-01T07:58:47.841Z,30.45
2022-12-01T08:01:17.345Z,27.20
2022-12-01T08:03:44.796Z,37.72
2022-12-01T08:06:11.956Z,30.40
2022-12-01T08:08:41.130Z,32.95
2022-12-01T08:11:12.335Z,34.50
2022-12-01T08:13:40.026Z,40.10
2022-12-01T08:16:09.142Z,32.78
2022-12-01T08:18:37.894Z,34.30
2022-12-01T08:21:06.131Z,33.85
2022-12-01T08:23:33.330Z,37.95
2022-12-01T08:26:04.649Z,32.70
2022-12-01T08:28:32.265Z,30.70
2022-12-01T08:30:58.982Z,35.80
2022-12-01T08:33:26.001Z,32.05
2022-12-01T08:35:52.962Z,33.20
2022-12-01T08:38:19.932Z,37.93
2022-12-01T08:40:46.579Z,40.60
2022-12-01T08:43:23.106Z,35.05
2022-12-01T08:46:01.270Z,39.25
2022-12-01T08:48:31.248Z,33.60
2022-12-01T08:51:24.339Z,37.33
2022-12-01T08:53:51.369Z,41.75
2022-12-01T08:56:27.621Z,36.53
2022-12-01T08:58:55.002Z,34.63
2022-12-01T09:01:22.766Z,35.53
2022-12-01T09:04:05.001Z,36.80
2022-12-01T09:06:40.197Z,37.70
2022-12-01T09:09:09.629Z,40.83
2022-12-01T09:11:36.815Z,39.78
2022-12-01T09:14:03.904Z,31.83
2022-12-01T09:16:30.902Z,33.73
2022-12-01T09:18:57.966Z,32.25
2022-12-01T09:21:27.287Z,32.30
2022-12-01T09:23:54.523Z,26.63
2022-12-01T09:26:21.415Z,29.83
2022-12-01T09:28:55.608Z,28.60
2022-12-01T09:31:25.776Z,29.45
2022-12-01T09:34:01.825Z,29.38
2022-12-01T09:36:30.141Z,30.83
2022-12-01T09:38:57.334Z,28.25
2022-12-01T09:41:32.127Z,35.70
2022-12-01T09:44:02.097Z,31.33
2022-12-01T09:46:41.355Z,36.17
2022-12-01T09:49:18.674Z,29.65
2022-12-01T09:51:45.587Z,28.25
2022-12-01T09:54:14.332Z,36.10
2022-12-01T09:56:52.465Z,29.13
2022-12-01T09:59:26.248Z,27.55
2022-12-01T10:02:01.107Z,29.33
2022-12-01T10:04:39.933Z,30.17
2022-12-01T10:07:28.541Z,30.03
2022-12-01T10:10:06.220Z,28.10
2022-12-01T10:12:35.341Z,27.90
2022-12-01T10:15:08.357Z,34.45
2022-12-01T10:18:05.916Z,33.17
2022-12-01T10:20:50.630Z,26.23
2022-12-01T10:23:41.911Z,25.85
2022-12-01T10:26:34.907Z,29.52
2022-12-01T10:29:13.395Z,26.15
2022-12-01T10:31:58.262Z,28.88
2022-12-01T10:34:28.732Z,24.77
2022-12-01T10:36:57.048Z,27.35
2022-12-01T10:39:34.114Z,27.55
2022-12-01T10:42:14.988Z,24.95
2022-12-01T10:44:42.897Z,24.00
2022-12-01T10:47:25.501Z,25.93
2022-12-01T10:49:53.036Z,24.05
2022-12-01T10:52:35.204Z,27.02
2022-12-01T10:55:03.304Z,21.10
2022-12-01T10:57:31.395Z,24.42
2022-12-01T11:00:02.733Z,21.57
2022-12-01T11:02:31.689Z,20.10
2022-12-01T11:05:02.443Z,21.20
2022-12-01T11:07:33.567Z,22.38
2022-12-01T11:10:15.719Z,20.75
2022-12-01T11:12:44.960Z,20.70
2022-12-01T11:15:30.993Z,21.92
2022-12-01T11:18:01.180Z,21.50
2022-12-01T11:20:32.929Z,22.73
2022-12-01T11:23:18.522Z,22.52
2022-12-01T11:25:57.345Z,20.47
2022-12-01T11:28:27.937Z,20.05
2022-12-01T11:30:57.147Z,23.20
2022-12-01T11:33:24.689Z,24.15
2022-12-01T11:35:51.627Z,23.17
2022-12-01T11:38:29.723Z,22.27
2022-12-01T11:40:58.020Z,23.15
2022-12-01T11:43:29.926Z,20.60
2022-12-01T11:45:59.671Z,21.15
2022-12-01T11:48:31.934Z,22.67
2022-12-01T11:51:05.055Z,18.83
2022-12-01T11:53:40.281Z,20.50
2022-12-01T11:56:14.933Z,22.15
2022-12-01T11:58:44.135Z,20.92
2022-12-01T12:01:32.345Z,20.85
2022-12-01T12:04:33.615Z,17.83
2022-12-01T12:07:28.280Z,20.75
2022-12-01T12:10:13.656Z,20.25
2022-12-01T12:13:14.511Z,19.30
2022-12-01T12:15:51.932Z,20.30
2022-12-01T12:18:34.198Z,23.47
2022-12-01T12:21:27.698Z,22.60
2022-12-01T12:24:13.329Z,18.58
2022-12-01T12:26:52.492Z,20.48
2022-12-01T12:29:24.590Z,19.45
2022-12-01T12:32:10.575Z,19.57
2022-12-01T12:34:45.915Z,18.88
2022-12-01T12:37:40.889Z,19.13
2022-12-01T12:40:40.535Z,19.50
2022-12-01T12:43:26.868Z,19.70
2022-12-01T12:46:11.255Z,20.10
2022-12-01T12:49:19.161Z,19.85
2022-12-01T12:51:52.866Z,18.02
2022-12-01T12:54:32.242Z,25.95
2022-12-01T12:57:04.815Z,19.88
2022-12-01T12:59:45.026Z,21.77
2022-12-01T13:02:20.714Z,24.23
2022-12-01T13:05:04.924Z,18.42
2022-12-01T13:07:42.274Z,18.50
2022-12-01T13:10:37.956Z,19.10
2022-12-01T13:13:16.295Z,22.20
2022-12-01T13:15:44.277Z,20.17
2022-12-01T13:18:47.965Z,20.25
2022-12-01T13:21:20.287Z,19.27
2022-12-01T13:23:49.693Z,19.13
2022-12-01T13:26:20.000Z,20.50
2022-12-01T13:28:52.812Z,20.77
2022-12-01T13:31:21.235Z,22.00
2022-12-01T13:34:00.838Z,20.10
2022-12-01T13:36:46.139Z,20.35
2022-12-01T13:39:18.584Z,20.35
2022-12-01T13:41:46.892Z,19.50
2022-12-01T13:44:23.427Z,23.75
2022-12-01T13:46:58.454Z,23.77
2022-12-01T13:49:43.858Z,23.77
2022-12-01T13:52:22.829Z,23.63
2022-12-01T13:55:07.819Z,27.53
2022-12-01T13:57:57.958Z,31.23
2022-12-01T14:00:28.954Z,25.13
2022-12-01T14:03:14.901Z,24.50
2022-12-01T14:05:53.917Z,25.30
2022-12-01T14:08:23.746Z,24.80
2022-12-01T14:11:02.667Z,26.52
2022-12-01T14:13:32.068Z,25.17
2022-12-01T14:16:01.103Z,27.77
2022-12-01T14:18:35.643Z,21.48
2022-12-01T14:21:06.300Z,23.60
2022-12-01T14:24:01.180Z,26.38
2022-12-01T14:26:30.260Z,27.20
2022-12-01T14:29:03.062Z,26.77
2022-12-01T14:31:32.833Z,24.58
2022-12-01T14:34:18.890Z,26.73
2022-12-01T14:36:53.181Z,23.13
2022-12-01T14:39:30.880Z,22.92
2022-12-01T14:42:02.330Z,24.55
2022-12-01T14:44:35.285Z,25.05
2022-12-01T14:47:08.217Z,24.67
2022-12-01T14:49:45.144Z,30.17
2022-12-01T14:52:36.619Z,29.30
2022-12-01T14:55:12.890Z,27.05
2022-12-01T14:57:43.934Z,25.23
2022-12-01T15:00:17.434Z,31.60
2022-12-01T15:02:51.627Z,25.63
2022-12-01T15:05:21.919Z,29.42
2022-12-01T15:07:58.786Z,25.60
2022-12-01T15:10:37.780Z,28.92
2022-12-01T15:13:22.747Z,26.13
2022-12-01T15:16:04.699Z,28.55
2022-12-01T15:18:37.517Z,28.75
2022-12-01T15:21:23.275Z,26.42
2022-12-01T15:23:59.277Z,24.58
2022-12-01T15:26:35.379Z,30.77
2022-12-01T15:29:16.916Z,28.85
2022-12-01T15:31:47.259Z,37.30
2022-12-01T15:34:23.723Z,25.98
2022-12-01T15:36:53.260Z,26.05
2022-12-01T15:39:35.317Z,29.87
2022-12-01T15:42:03.750Z,25.23
2022-12-01T15:44:33.885Z,27.52
2022-12-01T15:47:43.596Z,27.88
2022-12-01T15:50:39.730Z,27.20
2022-12-01T15:53:29.955Z,26.57
2022-12-01T15:55:59.212Z,25.33
2022-12-01T15:58:32.929Z,25.30
2022-12-01T16:01:11.001Z,26.17
2022-12-01T16:04:00.290Z,24.02
2022-12-01T16:06:34.324Z,26.90
2022-12-01T16:09:05.336Z,25.75
2022-12-01T16:11:32.207Z,25.50
2022-12-01T16:14:04.740Z,25.10
2022-12-01T16:16:46.240Z,21.02
2022-12-01T16:19:15.990Z,21.43
2022-12-01T16:22:01.513Z,25.50
2022-12-01T16:24:35.746Z,22.08
2022-12-01T16:27:15.552Z,23.85
2022-12-01T16:29:50.126Z,22.23
2022-12-01T16:32:43.998Z,22.23
2022-12-01T16:35:24.661Z,25.67
2022-12-01T16:37:51.345Z,24.55
2022-12-01T16:40:18.852Z,19.90
2022-12-01T16:42:46.006Z,22.20
2022-12-01T16:45:15.890Z,20.13
2022-12-01T16:47:43.896Z,23.75
2022-12-01T16:50:16.145Z,24.92
2022-12-01T16:52:44.954Z,21.73
2022-12-01T16:55:54.204Z,21.20
2022-12-01T16:58:21.188Z,28.67
2022-12-01T17:00:52.509Z,22.77
2022-12-01T17:03:21.711Z,22.63
2022-12-01T17:05:49.407Z,23.25
2022-12-01T17:08:16.763Z,25.23
2022-12-01T17:10:47.842Z,20.27
2022-12-01T17:13:14.862Z,22.63
2022-12-01T17:15:43.019Z,23.27
2022-12-01T17:18:10.462Z,26.75
2022-12-01T17:20:37.666Z,24.67
2022-12-01T17:23:05.133Z,22.90
2022-12-01T17:25:32.524Z,26.23
2022-12-01T17:27:59.192Z,23.20
2022-12-01T17:30:26.467Z,21.15
2022-12-01T17:32:53.140Z,24.15
2022-12-01T17:35:20.158Z,24.60
2022-12-01T17:37:46.797Z,27.02
2022-12-01T17:40:14.681Z,23.52
2022-12-01T17:42:46.781Z,24.58
2022-12-01T17:45:17.832Z,22.60
2022-12-01T17:47:44.552Z,24.87
2022-12-01T17:50:12.000Z,23.40
2022-12-01T17:52:38.724Z,27.38
2022-12-01T17:55:06.657Z,21.52
2022-12-01T17:57:34.065Z,21.45
2022-12-01T18:00:03.779Z,17.60
2022-12-01T18:02:35.493Z,24.42
2022-12-01T18:05:02.594Z,23.63
2022-12-01T18:07:29.652Z,25.23
2022-12-01T18:09:56.573Z,20.45
2022-12-01T18:12:23.471Z,20.50
2022-12-01T18:14:50.643Z,19.70
2022-12-01T18:17:17.657Z,27.52
2022-12-01T18:19:44.642Z,25.35
2022-12-01T18:22:11.305Z,22.27
2022-12-01T18:24:38.274Z,21.70
2022-12-01T18:27:05.088Z,26.75
2022-12-01T18:29:32.065Z,27.20
2022-12-01T18:32:00.075Z,24.77
2022-12-01T18:34:29.492Z,21.63
2022-12-01T18:36:56.837Z,30.03
2022-12-01T18:39:23.979Z,28.58
2022-12-01T18:41:50.688Z,24.17
2022-12-01T18:44:17.604Z,23.95
2022-12-01T18:46:44.551Z,27.30
2022-12-01T18:49:12.736Z,30.40
2022-12-01T18:51:40.076Z,26.48
2022-12-01T18:54:08.711Z,20.95
2022-12-01T18:56:35.885Z,22.05
2022-12-01T18:59:06.260Z,23.65
2022-12-01T19:01:40.022Z,25.10
2022-12-01T19:04:08.378Z,24.52
2022-12-01T19:06:36.663Z,20.90
2022-12-01T19:09:06.398Z,21.98
2022-12-01T19:11:33.479Z,19.83
2022-12-01T19:14:00.741Z,25.20
2022-12-01T19:16:27.784Z,21.63
2022-12-01T19:18:55.303Z,24.55
2022-12-01T19:21:22.029Z,23.13
2022-12-01T19:23:50.375Z,25.60
2022-12-01T19:26:19.685Z,21.77
2022-12-01T19:28:48.580Z,28.83
2022-12-01T19:31:24.071Z,25.00
2022-12-01T19:33:52.676Z,24.10
2022-12-01T19:36:23.534Z,26.02
2022-12-01T19:38:52.006Z,26.17
2022-12-01T19:41:25.043Z,24.05
2022-12-01T19:43:53.881Z,23.48
2022-12-01T19:46:23.124Z,21.00
2022-12-01T19:49:00.337Z,29.88
2022-12-01T19:51:35.151Z,26.40
2022-12-01T19:54:04.251Z,28.25
2022-12-01T19:56:31.885Z,24.05
2022-12-01T19:58:59.833Z,22.70
2022-12-01T20:01:27.605Z,25.50
2022-12-01T20:03:55.557Z,24.87
2022-12-01T20:06:26.251Z,27.17
2022-12-01T20:08:55.875Z,23.88
2022-12-01T20:11:23.353Z,26.63
2022-12-01T20:13:52.043Z,29.20
2022-12-01T20:16:21.935Z,24.40
2022-12-01T20:18:50.567Z,26.05
2022-12-01T20:21:24.764Z,27.80
2022-12-01T20:23:58.099Z,25.17
2022-12-01T20:26:30.587Z,26.38
2022-12-01T20:29:02.838Z,28.17
2022-12-01T20:31:31.266Z,24.40
2022-12-01T20:34:00.349Z,26.55
2022-12-01T20:36:28.773Z,31.42
2022-12-01T20:38:55.688Z,27.30
2022-12-01T20:41:23.689Z,29.83
2022-12-01T20:43:51.195Z,27.83
2022-12-01T20:46:19.257Z,28.42
2022-12-01T20:48:46.573Z,32.67
2022-12-01T20:51:15.064Z,30.83
2022-12-01T20:53:59.645Z,33.30
2022-12-01T20:56:30.820Z,32.63
2022-12-01T20:58:58.972Z,30.00
2022-12-01T21:01:26.521Z,33.10
2022-12-01T21:03:54.406Z,28.27
2022-12-01T21:06:21.529Z,33.07
2022-12-01T21:08:49.801Z,28.55
2022-12-01T21:11:42.904Z,40.70
2022-12-01T21:14:17.779Z,33.97
2022-12-01T21:16:49.078Z,34.22
2022-12-01T21:19:25.950Z,37.07
2022-12-01T21:21:52.896Z,32.55
2022-12-01T21:24:27.221Z,32.58
2022-12-01T21:26:59.960Z,34.83
2022-12-01T21:29:28.685Z,40.08
2022-12-01T21:32:00.105Z,32.93
2022-12-01T21:34:28.954Z,34.70
2022-12-01T21:37:02.386Z,40.67
2022-12-01T21:39:30.167Z,37.10
2022-12-01T21:42:00.017Z,34.75
2022-12-01T21:44:36.378Z,33.70
2022-12-01T21:47:16.310Z,36.47
2022-12-01T21:49:45.306Z,38.28
2022-12-01T21:52:18.532Z,40.72
2022-12-01T21:54:45.381Z,32.78
2022-12-01T21:57:32.170Z,34.00
2022-12-01T22:00:23.711Z,25.70
2022-12-01T22:02:58.347Z,28.05
2022-12-01T22:05:40.385Z,35.42
2022-12-01T22:08:07.583Z,33.60
2022-12-01T22:10:59.237Z,35.63
2022-12-01T22:13:55.639Z,23.48
2022-12-01T22:16:29.455Z,26.83
2022-12-01T22:19:02.281Z,25.80
2022-12-01T22:21:34.667Z,22.88
2022-12-01T22:24:10.493Z,25.27
2022-12-01T22:26:39.486Z,24.60
2022-12-01T22:29:28.258Z,24.48
2022-12-01T22:32:13.436Z,26.80
2022-12-01T22:34:45.295Z,33.05
2022-12-01T22:37:19.456Z,37.73
2022-12-01T22:39:47.693Z,37.88
2022-12-01T22:42:20.599Z,34.85
2022-12-01T22:44:47.769Z,29.42
2022-12-01T22:47:15.422Z,31.40
2022-12-01T22:49:42.576Z,32.63
2022-12-01T22:52:27.605Z,32.05
2022-12-01T22:54:54.925Z,30.17
2022-12-01T22:57:28.392Z,32.38
2022-12-01T22:59:55.415Z,27.25
2022-12-01T23:02:33.106Z,26.57
2022-12-01T23:05:32.902Z,29.88
2022-12-01T23:08:00.067Z,30.75
2022-12-01T23:10:33.747Z,27.98
2022-12-01T23:13:08.717Z,31.90
2022-12-01T23:15:38.962Z,26.83
2022-12-01T23:18:09.836Z,35.53
2022-12-01T23:20:36.924Z,22.02
2022-12-01T23:23:13.810Z,26.17
2022-12-01T23:25:41.725Z,30.15
2022-12-01T23:28:10.115Z,25.53
2022-12-01T23:30:40.347Z,26.50
2022-12-01T23:33:32.596Z,28.15
2022-12-01T23:36:11.156Z,22.70
2022-12-01T23:38:41.103Z,23.90
2022-12-01T23:41:15.041Z,23.20
2022-12-01T23:43:44.171Z,23.48
2022-12-01T23:46:17.907Z,21.45
2022-12-01T23:48:53.719Z,25.25
2022-12-01T23:51:27.993Z,21.42
2022-12-01T23:53:56.422Z,22.67
2022-12-01T23:56:26.544Z,22.42
2022-12-01T23:58:55.806Z,23.40
